Alpena County Regional Airport
KAPN : now visible

Airfield :











YOU CAN JOIN US ON...

 
LOGIN :

Register | Disclaimer

   EN    FR    IT 

 









Legend :    VFR   Marginal VFR   IFR   Intensive IFR   Very Intensive IFR
Visi :
Ceiling :
>= 8 km
>= 3000ft
5 to 8 km
1000 to 3000 ft
1500m to 5 km
500 to 1000 ft
800 to 1500m
200 to 500 ft
< 800m
< 200 ft
Symbols :   Thunderstorms  Fog  Heavy snow  Heavy precipitations  Wind > 20 kt






- Airport Elevation : 690 ft
- IATA code : APN


KAPN - Alpena County Regional

CURRENT METAR :
  • 240507Z AUTO 33011KT 4SM -RA BR SCT009 OVC015 04/03 A2987 RMK AO2 P0000 T00390028

EXPIRED METARs :
  • 240454Z AUTO 31008G17KT 6SM -RA BR OVC017 04/02 A2986 RMK AO2 RAB51 SLP116 P0000 T00440022 402060044
  • 240354Z AUTO 29008G18KT 10SM BKN018 OVC065 05/01 A2983 RMK AO2 SLP105 T00500011
  • 240328Z AUTO 30008G18KT 10SM SCT026 OVC060 06/01 A2982 RMK AO2 T00560011
  • 240254Z AUTO 31011G21KT 10SM OVC023 07/02 A2979 RMK AO2 SLP091 T00720022 51033
  • 240222Z AUTO 33006KT 10SM BKN026 OVC035 09/05 A2977 RMK AO2 T00940050
  • 240154Z AUTO 35008KT 10SM BKN039 OVC050 09/05 A2976 RMK AO2 SLP081 T00940050
  • 240054Z AUTO 04006KT 10SM SCT050 BKN065 09/05 A2974 RMK AO2 SLP075 T00890050

TAF KAPN
Valid from the 24 at 00:00 until the 25 at 00:00 UTC


232320Z 2400/2424 34012G21KT P6SM BKN060
FM240200 36011G22KT P6SM BKN025
FM240400 36011G20KT P6SM OVC012
FM241100 01012G20KT P6SM SCT045
FM241400 02011G19KT P6SM SKC
KZMP FIR / North America



MET'MAP, your aeronautical weather chart ! - Copyright ORBIFLY December 2007 - Disclaimer

ORBIFLY MET'MAP TEAM :

Programming & Development : Alexandra Zaïnal
Original concept : Baudouin d'Aumeries
Technical & hardware support : Manuel Goepfert
Assistance : Marc-Olivier Méhu




SOURCES & CREDITS :

   NOAA       Earth
Advisory